sensor_id;sensor_type;location;lat;lon;timestamp;P1;durP1;ratioP1;P2;durP2;ratioP2
55146;SDS011;41039;49.830;23.988;2023-07-20T00:01:24;5.63;;;3.47;;
55146;SDS011;41039;49.830;23.988;2023-07-20T00:03:49;5.97;;;3.38;;
55146;SDS011;41039;49.830;23.988;2023-07-20T00:06:20;5.32;;;3.58;;
55146;SDS011;41039;49.830;23.988;2023-07-20T00:08:45;7.70;;;3.65;;
55146;SDS011;41039;49.830;23.988;2023-07-20T00:11:10;6.27;;;3.00;;
55146;SDS011;41039;49.830;23.988;2023-07-20T00:13:36;5.70;;;3.47;;
55146;SDS011;41039;49.830;23.988;2023-07-20T00:16:01;5.07;;;3.22;;
55146;SDS011;41039;49.830;23.988;2023-07-20T00:18:26;8.50;;;3.63;;
55146;SDS011;41039;49.830;23.988;2023-07-20T00:20:51;5.33;;;3.50;;
55146;SDS011;41039;49.830;23.988;2023-07-20T00:23:17;6.20;;;3.40;;
55146;SDS011;41039;49.830;23.988;2023-07-20T00:25:42;5.93;;;3.70;;
55146;SDS011;41039;49.830;23.988;2023-07-20T00:28:07;5.73;;;3.70;;
55146;SDS011;41039;49.830;23.988;2023-07-20T00:30:32;7.30;;;3.67;;
55146;SDS011;41039;49.830;23.988;2023-07-20T00:32:58;5.73;;;3.83;;
55146;SDS011;41039;49.830;23.988;2023-07-20T00:35:23;6.90;;;4.40;;
55146;SDS011;41039;49.830;23.988;2023-07-20T00:37:48;4.77;;;4.27;;
55146;SDS011;41039;49.830;23.988;2023-07-20T00:40:13;7.03;;;4.90;;
55146;SDS011;41039;49.830;23.988;2023-07-20T00:42:38;10.73;;;6.23;;
55146;SDS011;41039;49.830;23.988;2023-07-20T00:45:04;7.60;;;4.78;;
55146;SDS011;41039;49.830;23.988;2023-07-20T00:47:30;6.45;;;4.70;;
55146;SDS011;41039;49.830;23.988;2023-07-20T00:49:55;5.68;;;4.10;;
55146;SDS011;41039;49.830;23.988;2023-07-20T00:52:21;9.07;;;4.80;;
55146;SDS011;41039;49.830;23.988;2023-07-20T00:54:47;8.38;;;4.47;;
55146;SDS011;41039;49.830;23.988;2023-07-20T00:57:12;6.82;;;4.90;;
55146;SDS011;41039;49.830;23.988;2023-07-20T00:59:39;7.43;;;5.00;;
55146;SDS011;41039;49.830;23.988;2023-07-20T01:02:04;5.35;;;4.32;;
55146;SDS011;41039;49.830;23.988;2023-07-20T01:04:29;6.30;;;4.43;;
55146;SDS011;41039;49.830;23.988;2023-07-20T01:06:58;6.32;;;4.25;;
55146;SDS011;41039;49.830;23.988;2023-07-20T01:09:39;5.78;;;3.85;;
55146;SDS011;41039;49.830;23.988;2023-07-20T01:12:07;6.20;;;4.10;;
55146;SDS011;41039;49.830;23.988;2023-07-20T01:14:34;5.72;;;4.20;;
55146;SDS011;41039;49.830;23.988;2023-07-20T01:16:59;5.90;;;3.83;;
55146;SDS011;41039;49.830;23.988;2023-07-20T01:19:24;7.20;;;4.43;;
55146;SDS011;41039;49.830;23.988;2023-07-20T01:21:59;4.82;;;4.13;;
55146;SDS011;41039;49.830;23.988;2023-07-20T01:32:16;5.30;;;3.75;;
55146;SDS011;41039;49.830;23.988;2023-07-20T01:34:42;6.88;;;4.55;;
55146;SDS011;41039;49.830;23.988;2023-07-20T01:37:07;5.18;;;4.38;;
55146;SDS011;41039;49.830;23.988;2023-07-20T01:39:33;7.32;;;4.55;;
55146;SDS011;41039;49.830;23.988;2023-07-20T01:42:00;7.13;;;4.50;;
55146;SDS011;41039;49.830;23.988;2023-07-20T01:44:25;9.63;;;5.10;;
55146;SDS011;41039;49.830;23.988;2023-07-20T01:46:50;7.68;;;4.15;;
55146;SDS011;41039;49.830;23.988;2023-07-20T01:49:16;9.63;;;4.80;;
55146;SDS011;41039;49.830;23.988;2023-07-20T01:51:41;8.13;;;3.73;;
55146;SDS011;41039;49.830;23.988;2023-07-20T01:54:06;6.47;;;4.43;;
55146;SDS011;41039;49.830;23.988;2023-07-20T01:56:31;6.70;;;3.97;;
55146;SDS011;41039;49.830;23.988;2023-07-20T01:58:56;5.30;;;4.13;;
55146;SDS011;41039;49.830;23.988;2023-07-20T02:01:22;5.60;;;3.80;;
55146;SDS011;41039;49.830;23.988;2023-07-20T02:03:47;6.68;;;3.97;;
55146;SDS011;41039;49.830;23.988;2023-07-20T02:06:12;5.17;;;3.87;;
55146;SDS011;41039;49.830;23.988;2023-07-20T02:08:37;6.20;;;3.88;;
55146;SDS011;41039;49.830;23.988;2023-07-20T02:11:03;4.83;;;3.80;;
55146;SDS011;41039;49.830;23.988;2023-07-20T02:13:29;6.47;;;3.53;;
55146;SDS011;41039;49.830;23.988;2023-07-20T02:15:54;5.93;;;3.83;;
55146;SDS011;41039;49.830;23.988;2023-07-20T02:18:19;5.93;;;3.43;;
55146;SDS011;41039;49.830;23.988;2023-07-20T02:20:45;6.28;;;3.90;;
55146;SDS011;41039;49.830;23.988;2023-07-20T02:23:10;5.47;;;3.60;;
55146;SDS011;41039;49.830;23.988;2023-07-20T02:25:36;4.95;;;3.53;;
55146;SDS011;41039;49.830;23.988;2023-07-20T02:28:01;6.73;;;3.87;;
55146;SDS011;41039;49.830;23.988;2023-07-20T02:30:27;12.05;;;4.30;;
55146;SDS011;41039;49.830;23.988;2023-07-20T02:32:52;8.13;;;3.92;;
55146;SDS011;41039;49.830;23.988;2023-07-20T02:35:18;7.13;;;4.17;;
55146;SDS011;41039;49.830;23.988;2023-07-20T02:37:43;6.95;;;3.95;;
55146;SDS011;41039;49.830;23.988;2023-07-20T02:40:09;10.82;;;4.22;;
55146;SDS011;41039;49.830;23.988;2023-07-20T02:42:34;6.03;;;4.18;;
55146;SDS011;41039;49.830;23.988;2023-07-20T02:44:59;4.80;;;3.35;;
55146;SDS011;41039;49.830;23.988;2023-07-20T02:47:25;4.45;;;3.25;;
55146;SDS011;41039;49.830;23.988;2023-07-20T02:49:50;5.20;;;3.30;;
55146;SDS011;41039;49.830;23.988;2023-07-20T02:52:15;5.05;;;3.65;;
55146;SDS011;41039;49.830;23.988;2023-07-20T02:54:40;6.87;;;3.90;;
55146;SDS011;41039;49.830;23.988;2023-07-20T02:57:06;6.65;;;4.07;;
55146;SDS011;41039;49.830;23.988;2023-07-20T02:59:31;6.78;;;4.22;;
55146;SDS011;41039;49.830;23.988;2023-07-20T03:01:56;7.43;;;3.83;;
55146;SDS011;41039;49.830;23.988;2023-07-20T03:04:22;5.95;;;3.90;;
55146;SDS011;41039;49.830;23.988;2023-07-20T03:06:49;7.10;;;4.20;;
55146;SDS011;41039;49.830;23.988;2023-07-20T03:09:14;5.20;;;3.85;;
55146;SDS011;41039;49.830;23.988;2023-07-20T03:11:40;7.38;;;4.10;;
55146;SDS011;41039;49.830;23.988;2023-07-20T03:14:05;6.88;;;4.05;;
55146;SDS011;41039;49.830;23.988;2023-07-20T03:16:31;5.05;;;4.18;;
55146;SDS011;41039;49.830;23.988;2023-07-20T03:18:58;7.57;;;4.10;;
55146;SDS011;41039;49.830;23.988;2023-07-20T03:21:23;5.32;;;3.63;;
55146;SDS011;41039;49.830;23.988;2023-07-20T03:23:48;5.97;;;4.20;;
55146;SDS011;41039;49.830;23.988;2023-07-20T03:26:13;6.07;;;3.90;;
55146;SDS011;41039;49.830;23.988;2023-07-20T03:28:39;5.70;;;3.90;;
55146;SDS011;41039;49.830;23.988;2023-07-20T03:31:04;7.38;;;4.10;;
55146;SDS011;41039;49.830;23.988;2023-07-20T03:33:30;8.55;;;4.53;;
55146;SDS011;41039;49.830;23.988;2023-07-20T03:35:55;6.18;;;4.20;;
55146;SDS011;41039;49.830;23.988;2023-07-20T03:38:21;5.63;;;4.20;;
55146;SDS011;41039;49.830;23.988;2023-07-20T03:40:50;5.47;;;4.10;;
55146;SDS011;41039;49.830;23.988;2023-07-20T03:43:16;6.32;;;4.57;;
55146;SDS011;41039;49.830;23.988;2023-07-20T03:45:41;8.98;;;4.75;;
55146;SDS011;41039;49.830;23.988;2023-07-20T03:48:06;6.33;;;4.37;;
55146;SDS011;41039;49.830;23.988;2023-07-20T03:50:31;5.60;;;4.07;;
55146;SDS011;41039;49.830;23.988;2023-07-20T03:52:57;8.30;;;4.47;;
55146;SDS011;41039;49.830;23.988;2023-07-20T03:55:22;8.03;;;3.87;;
55146;SDS011;41039;49.830;23.988;2023-07-20T03:57:48;5.07;;;3.83;;
55146;SDS011;41039;49.830;23.988;2023-07-20T04:00:15;5.88;;;4.43;;
55146;SDS011;41039;49.830;23.988;2023-07-20T04:02:41;7.25;;;4.40;;
55146;SDS011;41039;49.830;23.988;2023-07-20T04:05:06;7.55;;;4.10;;
55146;SDS011;41039;49.830;23.988;2023-07-20T04:07:32;6.97;;;3.97;;
55146;SDS011;41039;49.830;23.988;2023-07-20T04:09:57;6.97;;;4.45;;
55146;SDS011;41039;49.830;23.988;2023-07-20T04:12:22;7.22;;;4.20;;
55146;SDS011;41039;49.830;23.988;2023-07-20T04:14:47;6.43;;;4.15;;
55146;SDS011;41039;49.830;23.988;2023-07-20T04:17:12;5.80;;;4.07;;
55146;SDS011;41039;49.830;23.988;2023-07-20T04:19:38;7.13;;;4.22;;
55146;SDS011;41039;49.830;23.988;2023-07-20T04:22:03;5.97;;;4.28;;
55146;SDS011;41039;49.830;23.988;2023-07-20T04:24:29;6.80;;;4.07;;
55146;SDS011;41039;49.830;23.988;2023-07-20T04:26:54;7.27;;;3.97;;
55146;SDS011;41039;49.830;23.988;2023-07-20T04:29:19;9.00;;;4.10;;
55146;SDS011;41039;49.830;23.988;2023-07-20T04:31:44;6.43;;;4.00;;
55146;SDS011;41039;49.830;23.988;2023-07-20T04:34:10;6.32;;;3.90;;
55146;SDS011;41039;49.830;23.988;2023-07-20T04:36:35;6.70;;;4.60;;
55146;SDS011;41039;49.830;23.988;2023-07-20T04:39:00;8.50;;;3.77;;
55146;SDS011;41039;49.830;23.988;2023-07-20T04:41:26;5.40;;;3.72;;
55146;SDS011;41039;49.830;23.988;2023-07-20T04:43:51;6.63;;;3.95;;
55146;SDS011;41039;49.830;23.988;2023-07-20T04:46:16;6.47;;;3.93;;
55146;SDS011;41039;49.830;23.988;2023-07-20T04:48:43;8.57;;;6.30;;
55146;SDS011;41039;49.830;23.988;2023-07-20T04:51:09;6.95;;;4.60;;
55146;SDS011;41039;49.830;23.988;2023-07-20T04:53:35;7.18;;;3.90;;
55146;SDS011;41039;49.830;23.988;2023-07-20T04:56:00;8.25;;;4.30;;
55146;SDS011;41039;49.830;23.988;2023-07-20T04:58:25;7.13;;;4.03;;
55146;SDS011;41039;49.830;23.988;2023-07-20T05:00:51;8.20;;;4.80;;
55146;SDS011;41039;49.830;23.988;2023-07-20T05:03:16;9.05;;;4.75;;
55146;SDS011;41039;49.830;23.988;2023-07-20T05:05:41;6.93;;;4.85;;
55146;SDS011;41039;49.830;23.988;2023-07-20T05:08:07;9.43;;;5.13;;
55146;SDS011;41039;49.830;23.988;2023-07-20T05:10:32;11.90;;;5.60;;
55146;SDS011;41039;49.830;23.988;2023-07-20T05:12:57;9.13;;;5.00;;
55146;SDS011;41039;49.830;23.988;2023-07-20T05:15:23;7.10;;;5.45;;
55146;SDS011;41039;49.830;23.988;2023-07-20T05:17:48;11.35;;;5.28;;
55146;SDS011;41039;49.830;23.988;2023-07-20T05:20:13;13.45;;;6.25;;
55146;SDS011;41039;49.830;23.988;2023-07-20T05:22:39;5.80;;;4.75;;
55146;SDS011;41039;49.830;23.988;2023-07-20T05:25:06;10.32;;;5.22;;
55146;SDS011;41039;49.830;23.988;2023-07-20T05:27:31;7.43;;;4.90;;
55146;SDS011;41039;49.830;23.988;2023-07-20T05:29:56;10.60;;;5.27;;
55146;SDS011;41039;49.830;23.988;2023-07-20T05:32:22;9.57;;;5.47;;
55146;SDS011;41039;49.830;23.988;2023-07-20T05:34:47;11.10;;;5.93;;
55146;SDS011;41039;49.830;23.988;2023-07-20T05:37:12;11.17;;;8.07;;
55146;SDS011;41039;49.830;23.988;2023-07-20T05:39:37;9.95;;;5.50;;
55146;SDS011;41039;49.830;23.988;2023-07-20T05:42:02;9.33;;;5.20;;
55146;SDS011;41039;49.830;23.988;2023-07-20T05:44:28;8.60;;;5.03;;
55146;SDS011;41039;49.830;23.988;2023-07-20T05:46:53;9.47;;;5.97;;
55146;SDS011;41039;49.830;23.988;2023-07-20T05:49:18;7.33;;;5.50;;
55146;SDS011;41039;49.830;23.988;2023-07-20T05:51:43;8.93;;;5.43;;
55146;SDS011;41039;49.830;23.988;2023-07-20T05:54:09;15.97;;;7.17;;
55146;SDS011;41039;49.830;23.988;2023-07-20T05:56:34;8.53;;;5.00;;
55146;SDS011;41039;49.830;23.988;2023-07-20T05:58:59;9.17;;;5.33;;
55146;SDS011;41039;49.830;23.988;2023-07-20T06:01:24;8.93;;;5.65;;
55146;SDS011;41039;49.830;23.988;2023-07-20T06:03:52;7.43;;;4.50;;
55146;SDS011;41039;49.830;23.988;2023-07-20T06:06:17;7.60;;;5.35;;
55146;SDS011;41039;49.830;23.988;2023-07-20T06:08:42;8.90;;;5.27;;
55146;SDS011;41039;49.830;23.988;2023-07-20T06:11:08;9.13;;;5.20;;
55146;SDS011;41039;49.830;23.988;2023-07-20T06:13:33;8.50;;;5.07;;
55146;SDS011;41039;49.830;23.988;2023-07-20T06:15:58;8.30;;;4.65;;
55146;SDS011;41039;49.830;23.988;2023-07-20T06:18:23;9.00;;;4.30;;
55146;SDS011;41039;49.830;23.988;2023-07-20T06:20:52;6.68;;;4.68;;
55146;SDS011;41039;49.830;23.988;2023-07-20T06:23:20;8.93;;;4.75;;
55146;SDS011;41039;49.830;23.988;2023-07-20T06:25:45;10.18;;;4.90;;
55146;SDS011;41039;49.830;23.988;2023-07-20T06:28:11;8.82;;;4.95;;
55146;SDS011;41039;49.830;23.988;2023-07-20T06:30:36;9.10;;;4.80;;
55146;SDS011;41039;49.830;23.988;2023-07-20T06:33:01;10.57;;;4.90;;
55146;SDS011;41039;49.830;23.988;2023-07-20T06:35:27;8.20;;;4.93;;
55146;SDS011;41039;49.830;23.988;2023-07-20T06:37:52;10.88;;;4.97;;
55146;SDS011;41039;49.830;23.988;2023-07-20T06:40:17;8.30;;;4.70;;
55146;SDS011;41039;49.830;23.988;2023-07-20T06:42:42;10.85;;;4.85;;
55146;SDS011;41039;49.830;23.988;2023-07-20T06:45:08;7.45;;;3.67;;
55146;SDS011;41039;49.830;23.988;2023-07-20T06:47:33;6.72;;;3.35;;
55146;SDS011;41039;49.830;23.988;2023-07-20T06:49:59;6.47;;;3.50;;
55146;SDS011;41039;49.830;23.988;2023-07-20T06:52:24;7.43;;;5.07;;
55146;SDS011;41039;49.830;23.988;2023-07-20T06:54:49;5.65;;;3.97;;
55146;SDS011;41039;49.830;23.988;2023-07-20T06:57:15;6.55;;;4.03;;
55146;SDS011;41039;49.830;23.988;2023-07-20T06:59:40;6.32;;;3.67;;
55146;SDS011;41039;49.830;23.988;2023-07-20T07:02:05;11.95;;;4.57;;
55146;SDS011;41039;49.830;23.988;2023-07-20T07:04:31;8.98;;;4.00;;
55146;SDS011;41039;49.830;23.988;2023-07-20T07:06:56;10.13;;;4.50;;
55146;SDS011;41039;49.830;23.988;2023-07-20T07:09:21;9.50;;;4.10;;
55146;SDS011;41039;49.830;23.988;2023-07-20T07:11:47;7.37;;;3.97;;
55146;SDS011;41039;49.830;23.988;2023-07-20T07:14:12;6.33;;;3.50;;
55146;SDS011;41039;49.830;23.988;2023-07-20T07:16:37;7.03;;;4.35;;
55146;SDS011;41039;49.830;23.988;2023-07-20T07:19:03;10.65;;;4.60;;
55146;SDS011;41039;49.830;23.988;2023-07-20T07:21:28;9.52;;;4.72;;
55146;SDS011;41039;49.830;23.988;2023-07-20T07:23:54;9.20;;;4.45;;
55146;SDS011;41039;49.830;23.988;2023-07-20T07:26:22;10.15;;;4.38;;
55146;SDS011;41039;49.830;23.988;2023-07-20T07:28:47;7.80;;;4.40;;
55146;SDS011;41039;49.830;23.988;2023-07-20T07:31:12;7.77;;;3.93;;
55146;SDS011;41039;49.830;23.988;2023-07-20T07:33:38;7.30;;;3.93;;
55146;SDS011;41039;49.830;23.988;2023-07-20T07:36:03;6.13;;;3.65;;
55146;SDS011;41039;49.830;23.988;2023-07-20T07:38:28;7.38;;;3.83;;
55146;SDS011;41039;49.830;23.988;2023-07-20T07:40:54;8.68;;;3.80;;
55146;SDS011;41039;49.830;23.988;2023-07-20T07:43:19;5.57;;;3.50;;
55146;SDS011;41039;49.830;23.988;2023-07-20T07:45:44;13.67;;;5.27;;
55146;SDS011;41039;49.830;23.988;2023-07-20T07:48:09;21.17;;;6.70;;
55146;SDS011;41039;49.830;23.988;2023-07-20T07:50:37;11.55;;;4.70;;
55146;SDS011;41039;49.830;23.988;2023-07-20T07:53:03;14.48;;;5.00;;
55146;SDS011;41039;49.830;23.988;2023-07-20T07:55:28;12.20;;;4.33;;
55146;SDS011;41039;49.830;23.988;2023-07-20T07:57:53;8.52;;;3.80;;
55146;SDS011;41039;49.830;23.988;2023-07-20T08:00:19;10.32;;;4.25;;
55146;SDS011;41039;49.830;23.988;2023-07-20T08:02:47;8.20;;;3.97;;
55146;SDS011;41039;49.830;23.988;2023-07-20T08:05:13;8.00;;;4.60;;
55146;SDS011;41039;49.830;23.988;2023-07-20T08:07:38;7.28;;;4.15;;
55146;SDS011;41039;49.830;23.988;2023-07-20T08:10:04;10.13;;;4.38;;
55146;SDS011;41039;49.830;23.988;2023-07-20T08:12:30;6.53;;;3.80;;
55146;SDS011;41039;49.830;23.988;2023-07-20T08:14:55;8.90;;;3.97;;
55146;SDS011;41039;49.830;23.988;2023-07-20T08:17:20;6.55;;;4.05;;
55146;SDS011;41039;49.830;23.988;2023-07-20T08:19:46;8.68;;;4.15;;
55146;SDS011;41039;49.830;23.988;2023-07-20T08:22:11;7.30;;;4.15;;
55146;SDS011;41039;49.830;23.988;2023-07-20T08:24:39;6.40;;;3.70;;
55146;SDS011;41039;49.830;23.988;2023-07-20T08:27:04;7.00;;;4.18;;
55146;SDS011;41039;49.830;23.988;2023-07-20T08:29:29;7.45;;;4.63;;
55146;SDS011;41039;49.830;23.988;2023-07-20T08:31:55;9.37;;;4.87;;
55146;SDS011;41039;49.830;23.988;2023-07-20T08:34:20;8.73;;;4.40;;
55146;SDS011;41039;49.830;23.988;2023-07-20T08:36:45;8.00;;;4.70;;
55146;SDS011;41039;49.830;23.988;2023-07-20T08:39:10;6.65;;;4.75;;
55146;SDS011;41039;49.830;23.988;2023-07-20T08:41:36;8.45;;;4.25;;
55146;SDS011;41039;49.830;23.988;2023-07-20T08:44:02;10.80;;;5.07;;
55146;SDS011;41039;49.830;23.988;2023-07-20T08:46:27;5.90;;;4.63;;
55146;SDS011;41039;49.830;23.988;2023-07-20T08:48:53;6.72;;;4.80;;
55146;SDS011;41039;49.830;23.988;2023-07-20T08:51:19;7.57;;;5.22;;
55146;SDS011;41039;49.830;23.988;2023-07-20T08:53:45;9.00;;;5.10;;
55146;SDS011;41039;49.830;23.988;2023-07-20T08:56:10;10.00;;;5.25;;
55146;SDS011;41039;49.830;23.988;2023-07-20T08:58:36;6.95;;;4.90;;
55146;SDS011;41039;49.830;23.988;2023-07-20T09:01:02;8.07;;;4.70;;
55146;SDS011;41039;49.830;23.988;2023-07-20T09:03:28;6.63;;;4.22;;
55146;SDS011;41039;49.830;23.988;2023-07-20T09:05:53;8.38;;;4.15;;
55146;SDS011;41039;49.830;23.988;2023-07-20T09:08:18;5.55;;;4.10;;
55146;SDS011;41039;49.830;23.988;2023-07-20T09:10:44;6.83;;;4.27;;
55146;SDS011;41039;49.830;23.988;2023-07-20T09:13:09;6.30;;;4.60;;
55146;SDS011;41039;49.830;23.988;2023-07-20T09:15:34;9.77;;;4.85;;
55146;SDS011;41039;49.830;23.988;2023-07-20T09:18:01;8.48;;;5.75;;
55146;SDS011;41039;49.830;23.988;2023-07-20T09:20:26;6.13;;;4.25;;
55146;SDS011;41039;49.830;23.988;2023-07-20T09:22:52;6.75;;;4.65;;
55146;SDS011;41039;49.830;23.988;2023-07-20T09:25:20;6.03;;;4.35;;
55146;SDS011;41039;49.830;23.988;2023-07-20T09:27:46;9.77;;;5.47;;
55146;SDS011;41039;49.830;23.988;2023-07-20T09:30:11;7.30;;;4.85;;
55146;SDS011;41039;49.830;23.988;2023-07-20T09:32:42;7.55;;;5.15;;
55146;SDS011;41039;49.830;23.988;2023-07-20T09:35:18;8.43;;;5.13;;
55146;SDS011;41039;49.830;23.988;2023-07-20T09:40:14;10.30;;;5.20;;
55146;SDS011;41039;49.830;23.988;2023-07-20T09:42:39;8.02;;;5.43;;
55146;SDS011;41039;49.830;23.988;2023-07-20T09:45:06;10.13;;;5.25;;
55146;SDS011;41039;49.830;23.988;2023-07-20T09:47:32;7.63;;;4.88;;
55146;SDS011;41039;49.830;23.988;2023-07-20T09:50:00;8.38;;;4.63;;
55146;SDS011;41039;49.830;23.988;2023-07-20T09:52:25;7.60;;;4.40;;
55146;SDS011;41039;49.830;23.988;2023-07-20T09:54:51;6.75;;;5.20;;
55146;SDS011;41039;49.830;23.988;2023-07-20T09:57:16;7.38;;;4.47;;
55146;SDS011;41039;49.830;23.988;2023-07-20T09:59:41;7.38;;;4.57;;
55146;SDS011;41039;49.830;23.988;2023-07-20T10:02:09;7.75;;;4.75;;
55146;SDS011;41039;49.830;23.988;2023-07-20T10:04:36;8.30;;;4.85;;
55146;SDS011;41039;49.830;23.988;2023-07-20T10:07:02;7.28;;;4.55;;
55146;SDS011;41039;49.830;23.988;2023-07-20T10:09:30;6.47;;;4.63;;
55146;SDS011;41039;49.830;23.988;2023-07-20T10:11:56;7.40;;;4.50;;
55146;SDS011;41039;49.830;23.988;2023-07-20T10:14:21;7.78;;;4.68;;
55146;SDS011;41039;49.830;23.988;2023-07-20T10:16:49;7.65;;;5.75;;
55146;SDS011;41039;49.830;23.988;2023-07-20T10:19:17;7.68;;;4.95;;
55146;SDS011;41039;49.830;23.988;2023-07-20T10:21:51;7.05;;;5.00;;
55146;SDS011;41039;49.830;23.988;2023-07-20T10:24:18;7.20;;;4.70;;
55146;SDS011;41039;49.830;23.988;2023-07-20T10:26:43;8.63;;;4.70;;
55146;SDS011;41039;49.830;23.988;2023-07-20T10:29:09;6.90;;;4.43;;
55146;SDS011;41039;49.830;23.988;2023-07-20T10:31:34;8.75;;;5.22;;
55146;SDS011;41039;49.830;23.988;2023-07-20T10:34:00;6.35;;;4.57;;
55146;SDS011;41039;49.830;23.988;2023-07-20T10:36:26;8.02;;;5.78;;
55146;SDS011;41039;49.830;23.988;2023-07-20T10:38:55;9.30;;;5.75;;
55146;SDS011;41039;49.830;23.988;2023-07-20T10:41:21;7.60;;;4.97;;
55146;SDS011;41039;49.830;23.988;2023-07-20T10:43:47;8.82;;;5.30;;
55146;SDS011;41039;49.830;23.988;2023-07-20T10:46:13;9.55;;;6.32;;
55146;SDS011;41039;49.830;23.988;2023-07-20T10:51:22;8.63;;;5.88;;
55146;SDS011;41039;49.830;23.988;2023-07-20T10:53:48;6.78;;;5.18;;
55146;SDS011;41039;49.830;23.988;2023-07-20T10:56:14;10.43;;;6.10;;
55146;SDS011;41039;49.830;23.988;2023-07-20T10:58:40;10.07;;;6.03;;
55146;SDS011;41039;49.830;23.988;2023-07-20T11:01:06;6.72;;;5.40;;
55146;SDS011;41039;49.830;23.988;2023-07-20T11:03:37;9.48;;;5.68;;
55146;SDS011;41039;49.830;23.988;2023-07-20T11:06:29;7.80;;;5.60;;
55146;SDS011;41039;49.830;23.988;2023-07-20T11:08:54;6.40;;;5.25;;
55146;SDS011;41039;49.830;23.988;2023-07-20T11:11:24;8.65;;;5.90;;
55146;SDS011;41039;49.830;23.988;2023-07-20T11:13:56;8.65;;;5.55;;
55146;SDS011;41039;49.830;23.988;2023-07-20T11:19:00;5.40;;;4.18;;
55146;SDS011;41039;49.830;23.988;2023-07-20T11:21:25;5.28;;;4.22;;
55146;SDS011;41039;49.830;23.988;2023-07-20T11:23:51;7.32;;;4.18;;
55146;SDS011;41039;49.830;23.988;2023-07-20T11:26:17;6.82;;;4.97;;
55146;SDS011;41039;49.830;23.988;2023-07-20T11:28:48;6.75;;;4.30;;
55146;SDS011;41039;49.830;23.988;2023-07-20T11:31:14;5.88;;;3.90;;
55146;SDS011;41039;49.830;23.988;2023-07-20T11:33:41;6.35;;;4.57;;
55146;SDS011;41039;49.830;23.988;2023-07-20T11:36:07;6.38;;;4.07;;
55146;SDS011;41039;49.830;23.988;2023-07-20T11:38:33;5.82;;;3.63;;
55146;SDS011;41039;49.830;23.988;2023-07-20T11:40:58;4.77;;;3.53;;
55146;SDS011;41039;49.830;23.988;2023-07-20T11:43:23;4.80;;;3.57;;
55146;SDS011;41039;49.830;23.988;2023-07-20T11:45:49;4.30;;;3.20;;
55146;SDS011;41039;49.830;23.988;2023-07-20T11:48:15;5.03;;;3.33;;
55146;SDS011;41039;49.830;23.988;2023-07-20T11:50:40;5.30;;;3.75;;
55146;SDS011;41039;49.830;23.988;2023-07-20T11:53:05;5.20;;;3.25;;
55146;SDS011;41039;49.830;23.988;2023-07-20T11:55:31;5.45;;;3.78;;
55146;SDS011;41039;49.830;23.988;2023-07-20T11:58:03;5.43;;;3.22;;
55146;SDS011;41039;49.830;23.988;2023-07-20T12:00:28;4.97;;;3.45;;
55146;SDS011;41039;49.830;23.988;2023-07-20T12:02:53;5.00;;;3.50;;
55146;SDS011;41039;49.830;23.988;2023-07-20T12:05:19;3.97;;;2.83;;
55146;SDS011;41039;49.830;23.988;2023-07-20T12:07:44;4.50;;;3.25;;
55146;SDS011;41039;49.830;23.988;2023-07-20T12:10:10;5.63;;;3.10;;
55146;SDS011;41039;49.830;23.988;2023-07-20T12:12:39;5.88;;;3.28;;
55146;SDS011;41039;49.830;23.988;2023-07-20T12:15:15;6.15;;;3.17;;
55146;SDS011;41039;49.830;23.988;2023-07-20T12:17:49;6.93;;;6.13;;
55146;SDS011;41039;49.830;23.988;2023-07-20T12:20:24;4.40;;;3.20;;
55146;SDS011;41039;49.830;23.988;2023-07-20T12:22:49;3.80;;;2.35;;
55146;SDS011;41039;49.830;23.988;2023-07-20T12:25:14;3.43;;;2.57;;
55146;SDS011;41039;49.830;23.988;2023-07-20T12:27:40;4.43;;;2.90;;
55146;SDS011;41039;49.830;23.988;2023-07-20T12:30:06;6.57;;;4.28;;
55146;SDS011;41039;49.830;23.988;2023-07-20T12:32:32;5.32;;;2.83;;
55146;SDS011;41039;49.830;23.988;2023-07-20T12:34:57;4.03;;;2.65;;
55146;SDS011;41039;49.830;23.988;2023-07-20T12:37:25;6.75;;;2.95;;
55146;SDS011;41039;49.830;23.988;2023-07-20T12:39:50;3.65;;;2.40;;
55146;SDS011;41039;49.830;23.988;2023-07-20T12:42:15;5.47;;;2.90;;
55146;SDS011;41039;49.830;23.988;2023-07-20T12:44:41;9.23;;;3.40;;
55146;SDS011;41039;49.830;23.988;2023-07-20T12:47:06;3.65;;;2.83;;
55146;SDS011;41039;49.830;23.988;2023-07-20T12:49:32;4.20;;;2.83;;
55146;SDS011;41039;49.830;23.988;2023-07-20T12:51:57;3.80;;;2.17;;
55146;SDS011;41039;49.830;23.988;2023-07-20T12:54:22;12.57;;;3.33;;
55146;SDS011;41039;49.830;23.988;2023-07-20T12:56:48;4.40;;;2.67;;
55146;SDS011;41039;49.830;23.988;2023-07-20T12:59:13;5.73;;;2.30;;
55146;SDS011;41039;49.830;23.988;2023-07-20T13:01:38;6.03;;;3.20;;
55146;SDS011;41039;49.830;23.988;2023-07-20T13:04:06;4.22;;;2.63;;
55146;SDS011;41039;49.830;23.988;2023-07-20T13:06:33;11.18;;;3.70;;
55146;SDS011;41039;49.830;23.988;2023-07-20T13:08:59;6.35;;;3.00;;
55146;SDS011;41039;49.830;23.988;2023-07-20T13:11:24;5.03;;;3.47;;
55146;SDS011;41039;49.830;23.988;2023-07-20T13:13:50;5.70;;;3.57;;
55146;SDS011;41039;49.830;23.988;2023-07-20T13:16:15;4.30;;;2.77;;
55146;SDS011;41039;49.830;23.988;2023-07-20T13:18:40;5.32;;;3.03;;
55146;SDS011;41039;49.830;23.988;2023-07-20T13:21:05;4.85;;;3.00;;
55146;SDS011;41039;49.830;23.988;2023-07-20T13:23:35;5.18;;;3.13;;
55146;SDS011;41039;49.830;23.988;2023-07-20T13:26:00;5.38;;;2.88;;
55146;SDS011;41039;49.830;23.988;2023-07-20T13:28:25;3.67;;;2.42;;
55146;SDS011;41039;49.830;23.988;2023-07-20T13:30:51;5.53;;;3.07;;
55146;SDS011;41039;49.830;23.988;2023-07-20T13:33:16;4.45;;;2.88;;
55146;SDS011;41039;49.830;23.988;2023-07-20T13:35:41;4.57;;;2.30;;
55146;SDS011;41039;49.830;23.988;2023-07-20T13:38:06;4.40;;;2.87;;
55146;SDS011;41039;49.830;23.988;2023-07-20T13:40:32;4.40;;;2.87;;
55146;SDS011;41039;49.830;23.988;2023-07-20T13:42:57;6.70;;;3.58;;
55146;SDS011;41039;49.830;23.988;2023-07-20T13:45:22;4.07;;;2.80;;
55146;SDS011;41039;49.830;23.988;2023-07-20T13:47:47;5.93;;;2.83;;
55146;SDS011;41039;49.830;23.988;2023-07-20T13:50:13;4.15;;;2.75;;
55146;SDS011;41039;49.830;23.988;2023-07-20T13:52:38;4.32;;;3.28;;
55146;SDS011;41039;49.830;23.988;2023-07-20T13:55:03;6.10;;;3.35;;
55146;SDS011;41039;49.830;23.988;2023-07-20T13:57:29;3.80;;;2.80;;
55146;SDS011;41039;49.830;23.988;2023-07-20T13:59:54;3.58;;;2.53;;
55146;SDS011;41039;49.830;23.988;2023-07-20T14:02:20;5.50;;;2.60;;
55146;SDS011;41039;49.830;23.988;2023-07-20T14:04:45;5.67;;;2.63;;
55146;SDS011;41039;49.830;23.988;2023-07-20T14:07:10;5.43;;;2.72;;
55146;SDS011;41039;49.830;23.988;2023-07-20T14:09:36;4.75;;;2.80;;
55146;SDS011;41039;49.830;23.988;2023-07-20T14:12:01;5.68;;;2.70;;
55146;SDS011;41039;49.830;23.988;2023-07-20T14:14:26;4.28;;;2.17;;
55146;SDS011;41039;49.830;23.988;2023-07-20T14:16:52;4.77;;;2.67;;
55146;SDS011;41039;49.830;23.988;2023-07-20T14:19:17;3.97;;;2.47;;
55146;SDS011;41039;49.830;23.988;2023-07-20T14:21:42;3.90;;;2.50;;
55146;SDS011;41039;49.830;23.988;2023-07-20T14:24:07;2.65;;;1.80;;
55146;SDS011;41039;49.830;23.988;2023-07-20T14:26:33;4.53;;;2.00;;
55146;SDS011;41039;49.830;23.988;2023-07-20T14:28:58;4.32;;;2.33;;
55146;SDS011;41039;49.830;23.988;2023-07-20T14:31:25;3.67;;;1.92;;
55146;SDS011;41039;49.830;23.988;2023-07-20T14:33:50;3.60;;;2.25;;
55146;SDS011;41039;49.830;23.988;2023-07-20T14:36:15;4.40;;;3.17;;
55146;SDS011;41039;49.830;23.988;2023-07-20T14:38:41;3.50;;;1.90;;
55146;SDS011;41039;49.830;23.988;2023-07-20T14:41:06;3.20;;;2.30;;